sensor_id;sensor_type;location;lat;lon;timestamp;pressure;altitude;pressure_sealevel;temperature;humidity
79136;BME280;68533;51.090;17.216;2023-07-22T00:01:28;99634.09;;;15.14;98.59
79136;BME280;68533;51.090;17.216;2023-07-22T00:03:54;99615.72;;;15.09;98.21
79136;BME280;68533;51.090;17.216;2023-07-22T00:06:20;99612.84;;;14.97;97.52
79136;BME280;68533;51.090;17.216;2023-07-22T00:08:46;99607.16;;;14.94;98.61
79136;BME280;68533;51.090;17.216;2023-07-22T00:11:12;99617.66;;;14.80;98.43
79136;BME280;68533;51.090;17.216;2023-07-22T00:13:38;99636.84;;;14.76;98.81
79136;BME280;68533;51.090;17.216;2023-07-22T00:16:04;99635.09;;;14.71;99.19
79136;BME280;68533;51.090;17.216;2023-07-22T00:18:30;99637.88;;;14.63;98.75
79136;BME280;68533;51.090;17.216;2023-07-22T00:20:57;99638.06;;;14.58;98.08
79136;BME280;68533;51.090;17.216;2023-07-22T00:23:22;99632.53;;;14.58;98.12
79136;BME280;68533;51.090;17.216;2023-07-22T00:25:49;99630.06;;;14.65;96.92
79136;BME280;68533;51.090;17.216;2023-07-22T00:28:15;99626.03;;;14.45;98.65
79136;BME280;68533;51.090;17.216;2023-07-22T00:30:42;99629.16;;;14.44;99.17
79136;BME280;68533;51.090;17.216;2023-07-22T00:33:08;99616.28;;;14.39;98.77
79136;BME280;68533;51.090;17.216;2023-07-22T00:35:35;99623.78;;;14.38;98.73
79136;BME280;68533;51.090;17.216;2023-07-22T00:38:01;99647.50;;;14.31;99.37
79136;BME280;68533;51.090;17.216;2023-07-22T00:40:28;99653.22;;;14.34;98.70
79136;BME280;68533;51.090;17.216;2023-07-22T00:42:57;99652.72;;;14.32;98.50
79136;BME280;68533;51.090;17.216;2023-07-22T00:45:25;99656.97;;;14.30;98.13
79136;BME280;68533;51.090;17.216;2023-07-22T00:47:50;99666.72;;;14.27;98.35
79136;BME280;68533;51.090;17.216;2023-07-22T00:50:17;99666.91;;;14.22;98.97
79136;BME280;68533;51.090;17.216;2023-07-22T00:52:43;99667.06;;;14.17;98.33
79136;BME280;68533;51.090;17.216;2023-07-22T00:55:09;99669.34;;;14.07;99.60
79136;BME280;68533;51.090;17.216;2023-07-22T00:57:36;99664.13;;;13.96;100.00
79136;BME280;68533;51.090;17.216;2023-07-22T01:00:03;99663.31;;;13.96;100.00
79136;BME280;68533;51.090;17.216;2023-07-22T01:02:31;99666.06;;;13.96;99.79
79136;BME280;68533;51.090;17.216;2023-07-22T01:04:57;99668.69;;;13.92;100.00
79136;BME280;68533;51.090;17.216;2023-07-22T01:07:23;99670.31;;;13.85;100.00
79136;BME280;68533;51.090;17.216;2023-07-22T01:09:57;99655.34;;;13.77;100.00
79136;BME280;68533;51.090;17.216;2023-07-22T01:12:26;99658.75;;;13.83;100.00
79136;BME280;68533;51.090;17.216;2023-07-22T01:14:52;99656.81;;;13.75;100.00
79136;BME280;68533;51.090;17.216;2023-07-22T01:17:18;99656.31;;;13.90;100.00
79136;BME280;68533;51.090;17.216;2023-07-22T01:19:46;99657.13;;;13.82;100.00
79136;BME280;68533;51.090;17.216;2023-07-22T01:22:13;99645.44;;;13.76;100.00
79136;BME280;68533;51.090;17.216;2023-07-22T01:24:39;99656.00;;;13.74;100.00
79136;BME280;68533;51.090;17.216;2023-07-22T01:27:08;99648.84;;;13.73;99.75
79136;BME280;68533;51.090;17.216;2023-07-22T01:29:36;99653.84;;;13.71;100.00
79136;BME280;68533;51.090;17.216;2023-07-22T01:32:02;99656.78;;;13.66;100.00
79136;BME280;68533;51.090;17.216;2023-07-22T01:34:29;99652.88;;;13.58;100.00
79136;BME280;68533;51.090;17.216;2023-07-22T01:36:57;99655.47;;;13.64;100.00
79136;BME280;68533;51.090;17.216;2023-07-22T01:39:23;99651.75;;;13.59;100.00
79136;BME280;68533;51.090;17.216;2023-07-22T01:41:49;99662.97;;;13.63;100.00
79136;BME280;68533;51.090;17.216;2023-07-22T01:44:15;99666.88;;;13.71;99.73
79136;BME280;68533;51.090;17.216;2023-07-22T01:46:41;99670.13;;;13.73;99.69
79136;BME280;68533;51.090;17.216;2023-07-22T01:49:11;99669.81;;;13.74;99.18
79136;BME280;68533;51.090;17.216;2023-07-22T01:51:38;99680.88;;;13.83;98.49
79136;BME280;68533;51.090;17.216;2023-07-22T01:54:06;99683.78;;;13.86;98.72
79136;BME280;68533;51.090;17.216;2023-07-22T01:56:32;99681.81;;;13.78;99.09
79136;BME280;68533;51.090;17.216;2023-07-22T01:58:59;99694.34;;;13.67;99.76
79136;BME280;68533;51.090;17.216;2023-07-22T02:01:24;99687.00;;;13.71;99.78
79136;BME280;68533;51.090;17.216;2023-07-22T02:03:51;99702.97;;;13.83;99.17
79136;BME280;68533;51.090;17.216;2023-07-22T02:06:16;99702.97;;;13.74;100.00
79136;BME280;68533;51.090;17.216;2023-07-22T02:08:42;99702.81;;;13.71;100.00
79136;BME280;68533;51.090;17.216;2023-07-22T02:11:08;99703.75;;;13.66;100.00
79136;BME280;68533;51.090;17.216;2023-07-22T02:13:35;99708.34;;;13.71;99.91
79136;BME280;68533;51.090;17.216;2023-07-22T02:16:01;99709.09;;;13.54;100.00
79136;BME280;68533;51.090;17.216;2023-07-22T02:18:29;99706.03;;;13.55;100.00
79136;BME280;68533;51.090;17.216;2023-07-22T02:20:56;99703.41;;;13.59;99.65
79136;BME280;68533;51.090;17.216;2023-07-22T02:23:23;99706.78;;;13.39;100.00
79136;BME280;68533;51.090;17.216;2023-07-22T02:25:50;99707.75;;;13.43;100.00
79136;BME280;68533;51.090;17.216;2023-07-22T02:28:16;99704.63;;;13.36;100.00
79136;BME280;68533;51.090;17.216;2023-07-22T02:30:50;99710.78;;;13.24;100.00
79136;BME280;68533;51.090;17.216;2023-07-22T02:33:18;99710.13;;;13.27;100.00
79136;BME280;68533;51.090;17.216;2023-07-22T02:35:46;99712.59;;;13.37;100.00
79136;BME280;68533;51.090;17.216;2023-07-22T02:38:13;99717.28;;;13.28;100.00
79136;BME280;68533;51.090;17.216;2023-07-22T02:40:40;99719.38;;;13.23;100.00
79136;BME280;68533;51.090;17.216;2023-07-22T02:43:06;99708.16;;;13.19;100.00
79136;BME280;68533;51.090;17.216;2023-07-22T02:45:33;99717.75;;;13.21;100.00
79136;BME280;68533;51.090;17.216;2023-07-22T02:48:00;99723.31;;;13.30;100.00
79136;BME280;68533;51.090;17.216;2023-07-22T02:50:26;99717.94;;;13.25;100.00
79136;BME280;68533;51.090;17.216;2023-07-22T02:52:52;99722.00;;;13.28;100.00
79136;BME280;68533;51.090;17.216;2023-07-22T02:55:18;99708.53;;;13.26;100.00
79136;BME280;68533;51.090;17.216;2023-07-22T02:57:45;99711.63;;;13.42;100.00
79136;BME280;68533;51.090;17.216;2023-07-22T03:00:18;99713.97;;;13.48;100.00
79136;BME280;68533;51.090;17.216;2023-07-22T03:02:52;99719.81;;;13.47;100.00
79136;BME280;68533;51.090;17.216;2023-07-22T03:05:19;99725.47;;;13.50;100.00
79136;BME280;68533;51.090;17.216;2023-07-22T03:07:48;99729.53;;;13.44;100.00
79136;BME280;68533;51.090;17.216;2023-07-22T03:10:14;99728.22;;;13.42;100.00
79136;BME280;68533;51.090;17.216;2023-07-22T03:12:40;99728.09;;;13.47;100.00
79136;BME280;68533;51.090;17.216;2023-07-22T03:15:09;99737.38;;;13.59;100.00
79136;BME280;68533;51.090;17.216;2023-07-22T03:17:35;99736.91;;;13.66;100.00
79136;BME280;68533;51.090;17.216;2023-07-22T03:20:03;99740.31;;;13.72;99.66
79136;BME280;68533;51.090;17.216;2023-07-22T03:22:49;99741.63;;;13.66;100.00
79136;BME280;68533;51.090;17.216;2023-07-22T03:25:16;99738.72;;;13.79;98.72
79136;BME280;68533;51.090;17.216;2023-07-22T03:27:45;99745.22;;;13.75;99.86
79136;BME280;68533;51.090;17.216;2023-07-22T03:30:13;99747.47;;;13.73;100.00
79136;BME280;68533;51.090;17.216;2023-07-22T03:32:43;99753.66;;;13.70;100.00
79136;BME280;68533;51.090;17.216;2023-07-22T03:35:10;99747.97;;;13.75;100.00
79136;BME280;68533;51.090;17.216;2023-07-22T03:37:37;99746.53;;;13.77;99.93
79136;BME280;68533;51.090;17.216;2023-07-22T03:40:04;99756.13;;;13.80;99.75
79136;BME280;68533;51.090;17.216;2023-07-22T03:42:37;99759.69;;;13.80;99.41
79136;BME280;68533;51.090;17.216;2023-07-22T03:45:03;99758.75;;;13.85;99.38
79136;BME280;68533;51.090;17.216;2023-07-22T03:47:30;99762.16;;;13.90;99.10
79136;BME280;68533;51.090;17.216;2023-07-22T03:49:55;99758.91;;;13.88;99.52
79136;BME280;68533;51.090;17.216;2023-07-22T03:52:23;99763.13;;;13.94;99.38
79136;BME280;68533;51.090;17.216;2023-07-22T03:54:49;99756.78;;;13.94;99.92
79136;BME280;68533;51.090;17.216;2023-07-22T03:57:15;99762.31;;;13.94;100.00
79136;BME280;68533;51.090;17.216;2023-07-22T03:59:40;99763.31;;;13.98;100.00
79136;BME280;68533;51.090;17.216;2023-07-22T04:02:07;99768.53;;;14.08;99.13
79136;BME280;68533;51.090;17.216;2023-07-22T04:04:32;99775.06;;;14.12;99.16
79136;BME280;68533;51.090;17.216;2023-07-22T04:06:59;99782.84;;;14.10;98.50
79136;BME280;68533;51.090;17.216;2023-07-22T04:09:27;99780.56;;;14.12;98.23
79136;BME280;68533;51.090;17.216;2023-07-22T04:11:53;99782.22;;;14.13;97.70
79136;BME280;68533;51.090;17.216;2023-07-22T04:14:19;99778.28;;;14.06;98.22
79136;BME280;68533;51.090;17.216;2023-07-22T04:16:45;99781.72;;;14.11;96.87
79136;BME280;68533;51.090;17.216;2023-07-22T04:19:11;99784.47;;;14.11;97.04
79136;BME280;68533;51.090;17.216;2023-07-22T04:21:37;99783.50;;;14.07;96.60
79136;BME280;68533;51.090;17.216;2023-07-22T04:24:03;99779.56;;;14.08;96.33
79136;BME280;68533;51.090;17.216;2023-07-22T04:26:29;99782.38;;;14.25;95.63
79136;BME280;68533;51.090;17.216;2023-07-22T04:28:55;99785.97;;;14.34;95.63
79136;BME280;68533;51.090;17.216;2023-07-22T04:31:23;99790.72;;;14.43;95.41
79136;BME280;68533;51.090;17.216;2023-07-22T04:33:48;99796.59;;;14.58;92.94
79136;BME280;68533;51.090;17.216;2023-07-22T04:36:15;99799.00;;;14.60;93.77
79136;BME280;68533;51.090;17.216;2023-07-22T04:38:41;99798.69;;;14.70;92.76
79136;BME280;68533;51.090;17.216;2023-07-22T04:41:09;99803.22;;;14.92;91.08
79136;BME280;68533;51.090;17.216;2023-07-22T04:43:35;99796.66;;;15.22;90.29
79136;BME280;68533;51.090;17.216;2023-07-22T04:46:01;99798.91;;;15.29;89.08
79136;BME280;68533;51.090;17.216;2023-07-22T04:48:27;99800.97;;;15.49;88.66
79136;BME280;68533;51.090;17.216;2023-07-22T04:50:53;99807.44;;;15.70;88.38
79136;BME280;68533;51.090;17.216;2023-07-22T04:53:21;99801.16;;;15.90;86.90
79136;BME280;68533;51.090;17.216;2023-07-22T04:55:48;99801.91;;;16.00;86.45
79136;BME280;68533;51.090;17.216;2023-07-22T04:58:14;99805.25;;;16.14;85.69
79136;BME280;68533;51.090;17.216;2023-07-22T05:00:40;99809.66;;;16.15;84.60
79136;BME280;68533;51.090;17.216;2023-07-22T05:03:08;99803.41;;;16.18;84.54
79136;BME280;68533;51.090;17.216;2023-07-22T05:05:34;99812.72;;;16.43;84.06
79136;BME280;68533;51.090;17.216;2023-07-22T05:08:01;99815.00;;;16.41;83.13
79136;BME280;68533;51.090;17.216;2023-07-22T05:10:28;99808.09;;;16.47;82.98
79136;BME280;68533;51.090;17.216;2023-07-22T05:12:55;99814.69;;;16.42;80.66
79136;BME280;68533;51.090;17.216;2023-07-22T05:15:23;99813.00;;;16.71;80.52
79136;BME280;68533;51.090;17.216;2023-07-22T05:17:49;99810.47;;;16.65;80.26
79136;BME280;68533;51.090;17.216;2023-07-22T05:20:16;99816.00;;;16.65;80.21
79136;BME280;68533;51.090;17.216;2023-07-22T05:22:42;99816.81;;;16.66;81.08
79136;BME280;68533;51.090;17.216;2023-07-22T05:25:09;99828.19;;;16.73;80.24
79136;BME280;68533;51.090;17.216;2023-07-22T05:27:36;99825.16;;;16.99;79.44
79136;BME280;68533;51.090;17.216;2023-07-22T05:30:05;99834.28;;;16.87;78.48
79136;BME280;68533;51.090;17.216;2023-07-22T05:32:31;99833.25;;;16.92;79.17
79136;BME280;68533;51.090;17.216;2023-07-22T05:34:58;99837.69;;;17.05;77.55
79136;BME280;68533;51.090;17.216;2023-07-22T05:37:24;99841.41;;;17.09;77.35
79136;BME280;68533;51.090;17.216;2023-07-22T05:39:50;99842.44;;;17.04;76.29
79136;BME280;68533;51.090;17.216;2023-07-22T05:42:17;99846.25;;;17.33;75.91
79136;BME280;68533;51.090;17.216;2023-07-22T05:44:44;99844.59;;;17.65;75.88
79136;BME280;68533;51.090;17.216;2023-07-22T05:47:10;99849.31;;;17.52;75.80
79136;BME280;68533;51.090;17.216;2023-07-22T05:49:40;99852.00;;;17.61;74.07
79136;BME280;68533;51.090;17.216;2023-07-22T05:52:06;99850.31;;;17.80;72.28
79136;BME280;68533;51.090;17.216;2023-07-22T05:54:34;99850.19;;;17.77;72.78
79136;BME280;68533;51.090;17.216;2023-07-22T05:57:00;99854.13;;;17.76;73.07
79136;BME280;68533;51.090;17.216;2023-07-22T05:59:26;99852.63;;;18.27;72.17
79136;BME280;68533;51.090;17.216;2023-07-22T06:01:52;99851.00;;;18.26;71.09
79136;BME280;68533;51.090;17.216;2023-07-22T06:04:18;99844.88;;;18.08;71.27
79136;BME280;68533;51.090;17.216;2023-07-22T06:06:45;99855.75;;;18.26;71.65
79136;BME280;68533;51.090;17.216;2023-07-22T06:09:11;99858.44;;;18.34;71.62
79136;BME280;68533;51.090;17.216;2023-07-22T06:11:37;99860.38;;;19.10;72.16
79136;BME280;68533;51.090;17.216;2023-07-22T06:14:03;99857.78;;;18.89;70.91
79136;BME280;68533;51.090;17.216;2023-07-22T06:16:29;99873.84;;;18.56;70.96
79136;BME280;68533;51.090;17.216;2023-07-22T06:18:57;99857.16;;;18.19;70.51
79136;BME280;68533;51.090;17.216;2023-07-22T06:21:23;99865.84;;;18.42;69.24
79136;BME280;68533;51.090;17.216;2023-07-22T06:23:49;99864.31;;;18.69;70.68
79136;BME280;68533;51.090;17.216;2023-07-22T06:26:19;99866.66;;;18.67;69.76
79136;BME280;68533;51.090;17.216;2023-07-22T06:28:45;99869.34;;;18.91;68.55
79136;BME280;68533;51.090;17.216;2023-07-22T06:31:11;99861.03;;;18.79;67.62
79136;BME280;68533;51.090;17.216;2023-07-22T06:33:38;99866.81;;;19.26;66.40
79136;BME280;68533;51.090;17.216;2023-07-22T06:36:04;99876.31;;;19.25;66.64
79136;BME280;68533;51.090;17.216;2023-07-22T06:38:31;99869.78;;;19.06;65.52
79136;BME280;68533;51.090;17.216;2023-07-22T06:40:57;99883.81;;;19.37;65.80
79136;BME280;68533;51.090;17.216;2023-07-22T06:43:24;99875.91;;;19.39;66.36
79136;BME280;68533;51.090;17.216;2023-07-22T06:45:50;99881.69;;;19.46;65.62
79136;BME280;68533;51.090;17.216;2023-07-22T06:48:16;99877.97;;;19.70;66.92
79136;BME280;68533;51.090;17.216;2023-07-22T06:50:49;99880.56;;;19.35;66.19
79136;BME280;68533;51.090;17.216;2023-07-22T06:53:15;99889.34;;;19.21;67.24
79136;BME280;68533;51.090;17.216;2023-07-22T06:55:53;99886.53;;;18.93;65.69
79136;BME280;68533;51.090;17.216;2023-07-22T06:58:20;99888.56;;;19.64;63.24
79136;BME280;68533;51.090;17.216;2023-07-22T07:00:52;99897.69;;;19.77;63.53
79136;BME280;68533;51.090;17.216;2023-07-22T07:03:19;99897.63;;;20.05;63.12
79136;BME280;68533;51.090;17.216;2023-07-22T07:05:54;99897.06;;;19.84;64.45
79136;BME280;68533;51.090;17.216;2023-07-22T07:08:21;99901.34;;;19.10;65.09
79136;BME280;68533;51.090;17.216;2023-07-22T07:10:48;99912.50;;;19.37;65.16
79136;BME280;68533;51.090;17.216;2023-07-22T07:13:15;99896.38;;;19.31;62.81
79136;BME280;68533;51.090;17.216;2023-07-22T07:15:40;99905.03;;;19.14;63.97
79136;BME280;68533;51.090;17.216;2023-07-22T07:18:07;99915.75;;;19.39;63.50
79136;BME280;68533;51.090;17.216;2023-07-22T07:20:33;99918.28;;;19.72;61.68
79136;BME280;68533;51.090;17.216;2023-07-22T07:22:59;99909.31;;;20.58;58.22
79136;BME280;68533;51.090;17.216;2023-07-22T07:25:25;99917.72;;;20.77;58.29
79136;BME280;68533;51.090;17.216;2023-07-22T07:27:52;99921.94;;;20.36;58.70
79136;BME280;68533;51.090;17.216;2023-07-22T07:30:18;99920.59;;;20.30;58.77
79136;BME280;68533;51.090;17.216;2023-07-22T07:32:44;99932.25;;;21.17;58.50
79136;BME280;68533;51.090;17.216;2023-07-22T07:35:09;99929.81;;;21.54;57.21
79136;BME280;68533;51.090;17.216;2023-07-22T07:37:36;99937.72;;;20.79;56.71
79136;BME280;68533;51.090;17.216;2023-07-22T07:40:02;99937.56;;;20.72;56.86
79136;BME280;68533;51.090;17.216;2023-07-22T07:42:29;99937.69;;;20.12;58.92
79136;BME280;68533;51.090;17.216;2023-07-22T07:44:55;99936.84;;;19.96;58.90
79136;BME280;68533;51.090;17.216;2023-07-22T07:47:22;99932.03;;;20.40;57.36
79136;BME280;68533;51.090;17.216;2023-07-22T07:49:48;99940.19;;;21.54;55.12
79136;BME280;68533;51.090;17.216;2023-07-22T07:52:14;99938.34;;;21.42;55.53
79136;BME280;68533;51.090;17.216;2023-07-22T07:54:40;99943.44;;;21.17;56.04
79136;BME280;68533;51.090;17.216;2023-07-22T07:57:06;99951.03;;;21.01;56.16
79136;BME280;68533;51.090;17.216;2023-07-22T07:59:32;99948.03;;;20.28;58.23
79136;BME280;68533;51.090;17.216;2023-07-22T08:01:58;99948.94;;;20.63;56.33
79136;BME280;68533;51.090;17.216;2023-07-22T08:04:24;99940.81;;;21.66;54.13
79136;BME280;68533;51.090;17.216;2023-07-22T08:06:50;99951.53;;;22.49;51.80
79136;BME280;68533;51.090;17.216;2023-07-22T08:09:17;99950.50;;;23.39;50.68
79136;BME280;68533;51.090;17.216;2023-07-22T08:11:45;99959.56;;;22.99;50.23
79136;BME280;68533;51.090;17.216;2023-07-22T08:14:11;99959.38;;;22.39;51.04
79136;BME280;68533;51.090;17.216;2023-07-22T08:16:38;99957.81;;;21.96;51.31
79136;BME280;68533;51.090;17.216;2023-07-22T08:19:03;99954.41;;;23.35;50.45
79136;BME280;68533;51.090;17.216;2023-07-22T08:21:30;99976.97;;;23.72;48.57
79136;BME280;68533;51.090;17.216;2023-07-22T08:23:57;99966.09;;;21.51;51.54
79136;BME280;68533;51.090;17.216;2023-07-22T08:26:23;99967.09;;;22.23;51.17
79136;BME280;68533;51.090;17.216;2023-07-22T08:28:49;99969.25;;;21.49;52.98
79136;BME280;68533;51.090;17.216;2023-07-22T08:31:15;99976.63;;;22.64;51.35
79136;BME280;68533;51.090;17.216;2023-07-22T08:33:41;99974.28;;;22.93;49.72
79136;BME280;68533;51.090;17.216;2023-07-22T08:36:07;99971.47;;;21.59;53.60
79136;BME280;68533;51.090;17.216;2023-07-22T08:38:36;99967.63;;;20.94;52.82
79136;BME280;68533;51.090;17.216;2023-07-22T08:41:02;99981.53;;;22.25;50.31
79136;BME280;68533;51.090;17.216;2023-07-22T08:43:29;99982.00;;;22.50;48.86
79136;BME280;68533;51.090;17.216;2023-07-22T08:45:59;99974.31;;;22.01;50.64
79136;BME280;68533;51.090;17.216;2023-07-22T08:48:30;99977.94;;;22.25;48.81
79136;BME280;68533;51.090;17.216;2023-07-22T08:51:07;99974.41;;;22.73;48.94
79136;BME280;68533;51.090;17.216;2023-07-22T08:53:35;99976.75;;;23.24;46.77
79136;BME280;68533;51.090;17.216;2023-07-22T08:56:03;99974.13;;;23.68;46.14
79136;BME280;68533;51.090;17.216;2023-07-22T08:58:29;99973.06;;;21.99;49.99
79136;BME280;68533;51.090;17.216;2023-07-22T09:00:56;99973.84;;;22.41;48.81
79136;BME280;68533;51.090;17.216;2023-07-22T09:03:23;99987.38;;;22.85;50.60
79136;BME280;68533;51.090;17.216;2023-07-22T09:05:49;99978.56;;;21.95;48.09
79136;BME280;68533;51.090;17.216;2023-07-22T09:08:16;99983.03;;;22.19;49.25
79136;BME280;68533;51.090;17.216;2023-07-22T09:10:43;99990.00;;;20.94;50.56
79136;BME280;68533;51.090;17.216;2023-07-22T09:13:12;99983.56;;;21.63;50.06
79136;BME280;68533;51.090;17.216;2023-07-22T09:15:38;99971.44;;;21.79;47.49
79136;BME280;68533;51.090;17.216;2023-07-22T09:18:05;99977.25;;;22.54;46.15
79136;BME280;68533;51.090;17.216;2023-07-22T09:20:31;99991.81;;;22.63;46.65
79136;BME280;68533;51.090;17.216;2023-07-22T09:22:59;99985.00;;;23.43;46.05
79136;BME280;68533;51.090;17.216;2023-07-22T09:25:27;99983.78;;;23.41;44.08
79136;BME280;68533;51.090;17.216;2023-07-22T09:27:55;99988.03;;;24.28;43.68
79136;BME280;68533;51.090;17.216;2023-07-22T09:30:31;99984.41;;;24.27;45.03
79136;BME280;68533;51.090;17.216;2023-07-22T09:33:00;99983.16;;;24.21;42.35
79136;BME280;68533;51.090;17.216;2023-07-22T09:35:28;99995.50;;;25.01;43.84
79136;BME280;68533;51.090;17.216;2023-07-22T09:37:56;99984.66;;;24.52;41.58
79136;BME280;68533;51.090;17.216;2023-07-22T09:40:22;99991.25;;;24.74;44.60
79136;BME280;68533;51.090;17.216;2023-07-22T09:42:51;99987.84;;;23.17;44.67
79136;BME280;68533;51.090;17.216;2023-07-22T09:45:18;99989.66;;;24.76;43.36
79136;BME280;68533;51.090;17.216;2023-07-22T09:47:46;99989.28;;;25.40;42.68
79136;BME280;68533;51.090;17.216;2023-07-22T09:50:21;99988.16;;;23.38;43.42
79136;BME280;68533;51.090;17.216;2023-07-22T09:52:49;99988.50;;;23.07;43.65
79136;BME280;68533;51.090;17.216;2023-07-22T09:55:17;99986.66;;;22.92;44.29
79136;BME280;68533;51.090;17.216;2023-07-22T09:57:49;99987.69;;;22.12;46.42
79136;BME280;68533;51.090;17.216;2023-07-22T10:00:17;99982.09;;;23.06;46.88
79136;BME280;68533;51.090;17.216;2023-07-22T10:02:48;99977.16;;;24.23;43.62
79136;BME280;68533;51.090;17.216;2023-07-22T10:05:19;99985.47;;;24.53;43.10
79136;BME280;68533;51.090;17.216;2023-07-22T10:07:57;99982.75;;;23.86;44.11
79136;BME280;68533;51.090;17.216;2023-07-22T10:10:31;99977.91;;;22.02;44.91
79136;BME280;68533;51.090;17.216;2023-07-22T10:12:58;99989.72;;;21.34;46.25
79136;BME280;68533;51.090;17.216;2023-07-22T10:15:28;99994.66;;;21.41;47.25
79136;BME280;68533;51.090;17.216;2023-07-22T10:17:55;99996.59;;;22.63;45.22
79136;BME280;68533;51.090;17.216;2023-07-22T10:20:23;99989.31;;;23.64;41.57
79136;BME280;68533;51.090;17.216;2023-07-22T10:22:50;99984.88;;;24.81;41.62
79136;BME280;68533;51.090;17.216;2023-07-22T10:25:18;100000.94;;;23.99;42.97
79136;BME280;68533;51.090;17.216;2023-07-22T10:27:45;99989.69;;;23.32;42.59
79136;BME280;68533;51.090;17.216;2023-07-22T10:30:13;99998.81;;;23.89;41.61
79136;BME280;68533;51.090;17.216;2023-07-22T10:32:41;99989.00;;;24.97;39.70
79136;BME280;68533;51.090;17.216;2023-07-22T10:35:12;99995.75;;;25.51;38.71
79136;BME280;68533;51.090;17.216;2023-07-22T10:37:39;99991.66;;;25.31;39.75
79136;BME280;68533;51.090;17.216;2023-07-22T10:40:44;100000.44;;;25.22;40.00
79136;BME280;68533;51.090;17.216;2023-07-22T10:43:06;99981.84;;;22.89;41.88
79136;BME280;68533;51.090;17.216;2023-07-22T10:45:33;99988.53;;;22.80;42.64
79136;BME280;68533;51.090;17.216;2023-07-22T10:48:09;99999.97;;;25.09;41.13
79136;BME280;68533;51.090;17.216;2023-07-22T10:50:49;99984.75;;;24.66;38.56
79136;BME280;68533;51.090;17.216;2023-07-22T11:04:14;100010.78;;;21.86;43.14
79136;BME280;68533;51.090;17.216;2023-07-22T11:12:00;100007.97;;;23.82;39.55
79136;BME280;68533;51.090;17.216;2023-07-22T11:14:34;99999.03;;;24.91;37.55
79136;BME280;68533;51.090;17.216;2023-07-22T11:17:02;100003.72;;;25.35;36.80
79136;BME280;68533;51.090;17.216;2023-07-22T11:19:32;99997.78;;;25.58;36.09
79136;BME280;68533;51.090;17.216;2023-07-22T11:22:01;99996.31;;;25.05;33.93
79136;BME280;68533;51.090;17.216;2023-07-22T11:24:27;99996.13;;;24.84;39.77
79136;BME280;68533;51.090;17.216;2023-07-22T11:26:54;100005.03;;;24.09;38.86
79136;BME280;68533;51.090;17.216;2023-07-22T11:29:20;99999.16;;;24.58;37.88
79136;BME280;68533;51.090;17.216;2023-07-22T11:31:48;99995.69;;;25.33;34.73
79136;BME280;68533;51.090;17.216;2023-07-22T11:34:16;99990.53;;;23.99;37.59
79136;BME280;68533;51.090;17.216;2023-07-22T11:36:43;99999.97;;;25.09;39.31
79136;BME280;68533;51.090;17.216;2023-07-22T11:39:11;99988.38;;;26.08;35.75
79136;BME280;68533;51.090;17.216;2023-07-22T11:41:39;99982.75;;;26.15;34.70
79136;BME280;68533;51.090;17.216;2023-07-22T11:44:10;99980.75;;;26.23;33.31
79136;BME280;68533;51.090;17.216;2023-07-22T11:49:46;99980.06;;;25.50;34.90
79136;BME280;68533;51.090;17.216;2023-07-22T11:52:11;99984.28;;;25.88;36.86
79136;BME280;68533;51.090;17.216;2023-07-22T11:54:41;99980.88;;;25.47;35.14
79136;BME280;68533;51.090;17.216;2023-07-22T11:57:17;99978.97;;;24.49;36.55
79136;BME280;68533;51.090;17.216;2023-07-22T12:02:16;99977.34;;;22.61;38.36
79136;BME280;68533;51.090;17.216;2023-07-22T12:04:57;99990.22;;;24.08;37.94
79136;BME280;68533;51.090;17.216;2023-07-22T12:07:25;99987.44;;;25.72;37.62
79136;BME280;68533;51.090;17.216;2023-07-22T12:09:53;99996.50;;;26.45;36.68
79136;BME280;68533;51.090;17.216;2023-07-22T12:12:19;99998.00;;;25.21;37.65
79136;BME280;68533;51.090;17.216;2023-07-22T12:14:45;99993.22;;;25.25;37.75
79136;BME280;68533;51.090;17.216;2023-07-22T12:17:11;99990.41;;;26.25;33.52
79136;BME280;68533;51.090;17.216;2023-07-22T12:19:37;99984.97;;;24.91;36.23
79136;BME280;68533;51.090;17.216;2023-07-22T12:22:03;99982.44;;;24.83;35.08
79136;BME280;68533;51.090;17.216;2023-07-22T12:24:30;99975.19;;;25.36;35.23
79136;BME280;68533;51.090;17.216;2023-07-22T12:26:57;99974.09;;;25.55;33.81
79136;BME280;68533;51.090;17.216;2023-07-22T12:29:22;99983.91;;;26.00;34.78
79136;BME280;68533;51.090;17.216;2023-07-22T12:31:49;99982.78;;;25.29;33.90
79136;BME280;68533;51.090;17.216;2023-07-22T12:34:15;99988.97;;;24.90;36.42
79136;BME280;68533;51.090;17.216;2023-07-22T12:36:43;99984.34;;;24.20;36.95
79136;BME280;68533;51.090;17.216;2023-07-22T12:39:09;99983.97;;;24.25;36.95
79136;BME280;68533;51.090;17.216;2023-07-22T12:41:36;99983.25;;;24.32;35.58
79136;BME280;68533;51.090;17.216;2023-07-22T12:44:01;99973.19;;;24.27;34.43
79136;BME280;68533;51.090;17.216;2023-07-22T12:46:29;99987.19;;;25.23;32.13
79136;BME280;68533;51.090;17.216;2023-07-22T12:48:55;99965.88;;;25.22;32.81
79136;BME280;68533;51.090;17.216;2023-07-22T12:51:21;99972.16;;;25.70;32.80
79136;BME280;68533;51.090;17.216;2023-07-22T12:53:47;99973.84;;;25.12;31.39
79136;BME280;68533;51.090;17.216;2023-07-22T12:56:13;99962.50;;;24.07;33.13
79136;BME280;68533;51.090;17.216;2023-07-22T12:58:39;99965.97;;;24.77;33.11
79136;BME280;68533;51.090;17.216;2023-07-22T13:01:05;99964.78;;;23.94;34.83
79136;BME280;68533;51.090;17.216;2023-07-22T13:03:31;99970.88;;;23.99;34.44
79136;BME280;68533;51.090;17.216;2023-07-22T13:05:57;99969.84;;;24.18;32.97
79136;BME280;68533;51.090;17.216;2023-07-22T13:08:23;99955.94;;;23.92;33.68
79136;BME280;68533;51.090;17.216;2023-07-22T13:10:49;99955.72;;;23.11;35.38